Time;durP1;ratioP1;P1;durP2;ratioP2;P2;SDS_P1;SDS_P2;PMS_P1;PMS_P2;Temp;Humidity;BMP_temperature;BMP_pressure;BME280_temperature;BME280_humidity;BME280_pressure;Samples;Min_cycle;Max_cycle;Signal;HPM_P1;HPM_P2
2021/11/28 06:01:17;;;;;;;0.80;0.80;;;;;;;-1.19;80.96;90182.53;4266501;24;20054;-82
2021/11/28 06:03:44;;;;;;;0.80;0.80;;;;;;;-1.22;82.89;90191.53;4809081;29;20034;-82
2021/11/28 06:06:47;;;;;;;0.70;0.70;;;;;;;-1.15;78.63;90188.66;4827556;29;20103;-83
2021/11/28 06:09:18;;;;;;;2.08;1.20;;;;;;;-1.28;82.57;90192.63;4822112;29;20050;-83
2021/11/28 06:11:46;;;;;;;1.95;1.30;;;;;;;-1.36;80.41;90172.66;4806938;29;20501;-84
2021/11/28 06:14:30;;;;;;;1.45;0.90;;;;;;;-1.27;77.80;90186.44;4807894;29;20075;-83
2021/11/28 06:17:13;;;;;;;0.80;0.80;;;;;;;-1.25;78.64;90184.38;4796026;29;20501;-83
2021/11/28 06:20:09;;;;;;;0.73;0.73;;;;;;;-1.13;77.14;90184.00;4797344;29;20086;-82
2021/11/28 06:23:10;;;;;;;3.10;1.30;;;;;;;-1.17;79.02;90186.38;4798439;29;20054;-84
2021/11/28 06:25:35;;;;;;;0.75;0.75;;;;;;;-1.12;78.20;90183.75;4810153;29;20398;-84
2021/11/28 06:28:04;;;;;;;0.80;0.80;;;;;;;-1.13;77.43;90182.19;4808910;29;20038;-83
2021/11/28 06:30:31;;;;;;;1.25;1.00;;;;;;;-1.08;78.91;90189.88;4809755;29;20130;-83
2021/11/28 06:33:16;;;;;;;2.22;0.90;;;;;;;-1.09;78.34;90187.56;4804344;29;20414;-84
2021/11/28 06:35:51;;;;;;;3.30;1.60;;;;;;;-1.11;78.46;90192.22;4809815;29;20069;-83
2021/11/28 06:38:35;;;;;;;4.22;1.55;;;;;;;-1.13;78.35;90192.47;4810186;29;20421;-84
2021/11/28 06:41:42;;;;;;;0.93;0.90;;;;;;;-1.18;78.35;90207.94;4816839;29;20054;-83
2021/11/28 06:44:08;;;;;;;1.10;1.00;;;;;;;-1.17;77.81;90203.56;4805824;29;20087;-82
2021/11/28 06:46:35;;;;;;;7.43;2.20;;;;;;;-1.13;78.26;90205.31;4809480;29;20042;-83
2021/11/28 06:49:03;;;;;;;49.30;13.18;;;;;;;-1.01;76.40;90199.03;4809581;29;20053;-82
2021/11/28 06:51:50;;;;;;;12.45;2.90;;;;;;;-0.98;76.59;90203.66;4806680;29;20043;-82
2021/11/28 06:54:36;;;;;;;2.40;1.33;;;;;;;-1.01;75.78;90210.09;4809158;29;20055;-84
2021/11/28 06:57:03;;;;;;;2.60;1.58;;;;;;;-1.06;77.71;90203.22;4798651;29;20553;-83
2021/11/28 06:59:31;;;;;;;0.98;0.90;;;;;;;-1.08;78.79;90215.56;4806518;29;20035;-82
2021/11/28 07:02:01;;;;;;;1.85;1.27;;;;;;;-1.05;78.36;90204.72;4805821;29;20088;-82
2021/11/28 07:04:42;;;;;;;2.75;1.55;;;;;;;-1.03;77.83;90213.97;4809832;29;20047;-85
2021/11/28 07:07:15;;;;;;;2.90;1.63;;;;;;;-0.98;77.66;90211.38;4805837;29;20055;-85
2021/11/28 07:09:47;;;;;;;1.13;1.00;;;;;;;-0.93;78.26;90224.16;4809056;29;20123;-85
2021/11/28 07:12:56;;;;;;;3.83;1.17;;;;;;;-0.86;77.17;90222.03;4778120;29;20043;-83
2021/11/28 07:15:23;;;;;;;0.93;0.93;;;;;;;-0.17;75.97;90220.00;4803028;29;20037;-84
2021/11/28 07:17:50;;;;;;;0.90;0.90;;;;;;;2.11;69.23;90224.56;4794258;29;20103;-83
2021/11/28 07:20:54;;;;;;;1.00;0.90;;;;;;;3.63;62.84;90221.34;4814368;29;20046;-82
2021/11/28 07:23:20;;;;;;;0.77;0.70;;;;;;;3.60;60.27;90227.09;4803562;29;20039;-83
2021/11/28 07:26:07;;;;;;;0.88;0.88;;;;;;;5.21;55.08;90232.34;4803954;29;20401;-83
2021/11/28 07:28:42;;;;;;;3.15;1.45;;;;;;;5.03;54.70;90238.63;4806753;29;20039;-83
2021/11/28 07:31:08;;;;;;;0.88;0.80;;;;;;;4.76;56.36;90240.44;4810483;29;20103;-83
2021/11/28 07:34:06;;;;;;;0.70;0.70;;;;;;;4.29;58.19;90242.84;4815129;29;20039;-78
2021/11/28 07:37:10;;;;;;;0.90;0.70;;;;;;;3.98;59.39;90248.09;4792992;29;20057;-78
2021/11/28 07:39:38;;;;;;;1.20;0.80;;;;;;;3.42;61.87;90247.69;4807723;29;20045;-76
2021/11/28 07:42:07;;;;;;;0.57;0.57;;;;;;;2.70;61.53;90254.56;4804272;29;20572;-76
2021/11/28 07:44:35;;;;;;;3.22;1.42;;;;;;;2.37;64.33;90240.31;4805454;29;20062;-76
2021/11/28 07:47:19;;;;;;;2.30;0.77;;;;;;;1.97;64.96;90238.25;4805412;29;20037;-75
2021/11/28 07:50:06;;;;;;;1.40;0.98;;;;;;;1.76;65.09;90248.19;4804788;29;20208;-76
2021/11/28 07:52:32;;;;;;;2.78;1.10;;;;;;;1.31;64.54;90247.22;4804628;29;20049;-76
2021/11/28 07:55:00;;;;;;;1.67;0.88;;;;;;;1.17;64.87;90234.28;4803236;29;20031;-76
2021/11/28 07:57:46;;;;;;;1.65;1.02;;;;;;;0.97;65.76;90225.84;4802880;29;20055;-75
2021/11/28 08:00:37;;;;;;;3.13;1.40;;;;;;;0.93;65.52;90227.47;4795712;29;20046;-75
2021/11/28 08:03:18;;;;;;;0.70;0.70;;;;;;;0.75;67.80;90230.84;4803263;29;20039;-75
2021/11/28 08:06:03;;;;;;;1.20;0.90;;;;;;;0.56;67.77;90241.94;4804766;29;20054;-76
2021/11/28 08:08:48;;;;;;;3.35;1.52;;;;;;;0.58;69.44;90244.97;4804087;29;20085;-76
2021/11/28 08:11:26;;;;;;;1.27;1.10;;;;;;;0.57;69.18;90246.03;4802892;29;20162;-76
2021/11/28 08:13:53;;;;;;;2.65;1.30;;;;;;;0.57;69.98;90240.13;4804028;29;20050;-76
2021/11/28 08:16:19;;;;;;;1.27;0.90;;;;;;;0.60;68.62;90242.88;4803959;29;20046;-76
2021/11/28 08:18:45;;;;;;;0.93;0.85;;;;;;;0.60;69.03;90230.00;4802978;29;20523;-76
2021/11/28 08:21:10;;;;;;;0.90;0.90;;;;;;;0.69;67.78;90245.59;4803906;29;20026;-76
2021/11/28 08:23:36;;;;;;;3.75;1.02;;;;;;;0.56;65.30;90251.44;4804069;29;20050;-76
2021/11/28 08:26:02;;;;;;;2.05;0.95;;;;;;;0.52;68.39;90238.38;4804105;29;20038;-76
2021/11/28 08:28:28;;;;;;;0.98;0.80;;;;;;;0.53;66.61;90239.91;4801980;29;20114;-78
2021/11/28 08:30:54;;;;;;;6.32;2.33;;;;;;;0.56;68.37;90243.72;4814619;29;20081;-78
2021/11/28 08:33:34;;;;;;;0.60;0.60;;;;;;;0.60;64.74;90229.25;4800662;29;20047;-78
2021/11/28 08:36:20;;;;;;;0.70;0.70;;;;;;;0.65;66.47;90241.28;4805867;29;20065;-79
2021/11/28 08:38:48;;;;;;;0.70;0.70;;;;;;;0.67;62.35;90239.19;4801946;29;20516;-76
2021/11/28 08:41:14;;;;;;;1.08;0.68;;;;;;;0.72;63.93;90236.53;4802681;29;20027;-76
2021/11/28 08:43:41;;;;;;;2.65;0.93;;;;;;;0.81;68.25;90243.38;4803791;29;20095;-76
2021/11/28 08:46:07;;;;;;;1.77;1.20;;;;;;;0.85;70.35;90246.13;4803749;29;20035;-76
2021/11/28 08:48:33;;;;;;;4.05;2.15;;;;;;;0.83;73.44;90238.69;4803503;29;20516;-76
2021/11/28 08:51:00;;;;;;;5.85;2.58;;;;;;;0.79;72.14;90248.03;4803707;29;20054;-75
2021/11/28 08:53:25;;;;;;;3.20;1.73;;;;;;;0.80;72.30;90253.94;4803801;29;20352;-76
2021/11/28 08:55:52;;;;;;;1.98;1.23;;;;;;;0.88;73.92;90249.94;4802623;29;20035;-76
2021/11/28 08:58:18;;;;;;;7.47;3.47;;;;;;;0.90;76.45;90253.78;4802348;29;20066;-76
2021/11/28 09:00:43;;;;;;;15.50;7.07;;;;;;;0.84;78.75;90249.75;4802333;29;20499;-76
2021/11/28 09:03:09;;;;;;;5.43;2.83;;;;;;;0.90;78.14;90243.50;4802623;29;20577;-76
2021/11/28 09:05:35;;;;;;;3.78;1.80;;;;;;;0.93;77.31;90253.22;4803803;29;20494;-77
2021/11/28 09:08:02;;;;;;;9.95;2.83;;;;;;;0.97;77.63;90254.19;4803630;29;20043;-76
2021/11/28 09:10:29;;;;;;;25.35;9.10;;;;;;;0.98;76.75;90254.94;4803689;29;20163;-75
2021/11/28 09:12:55;;;;;;;15.65;5.13;;;;;;;1.08;75.99;90265.09;4803665;29;20121;-76
2021/11/28 09:15:21;;;;;;;42.42;15.65;;;;;;;1.16;77.25;90255.94;4804545;29;20459;-76
2021/11/28 09:17:58;;;;;;;12.35;6.20;;;;;;;1.22;76.89;90257.41;4805863;29;20050;-76
2021/11/28 09:20:24;;;;;;;3.53;1.88;;;;;;;1.28;74.35;90255.50;4807137;29;20525;-75
2021/11/28 09:25:24;;;;;;;8.48;4.10;;;;;;;1.38;77.04;90263.06;4805879;29;20054;-76
2021/11/28 09:27:52;;;;;;;8.52;4.25;;;;;;;1.37;77.06;90267.44;4805680;29;20046;-75
2021/11/28 09:30:20;;;;;;;4.38;2.47;;;;;;;1.37;77.68;90264.84;4806747;29;20042;-76
2021/11/28 09:32:47;;;;;;;3.42;1.75;;;;;;;1.39;78.95;90260.19;4806643;29;20039;-76
2021/11/28 09:35:13;;;;;;;3.63;1.80;;;;;;;1.35;79.76;90264.41;4806779;29;20054;-76
2021/11/28 09:37:39;;;;;;;5.80;2.80;;;;;;;1.43;79.62;90263.72;4805479;29;20049;-75
2021/11/28 09:40:06;;;;;;;6.18;3.53;;;;;;;1.43;78.73;90255.25;4805471;29;20050;-77
2021/11/28 09:42:40;;;;;;;7.53;3.72;;;;;;;1.47;77.96;90260.59;4806557;29;20538;-76
2021/11/28 09:45:07;;;;;;;3.13;1.83;;;;;;;1.55;77.29;90257.34;4805247;29;20053;-76
2021/11/28 09:47:35;;;;;;;4.50;2.38;;;;;;;1.68;77.06;90254.00;4805365;29;20035;-76
2021/11/28 09:50:07;;;;;;;6.22;2.30;;;;;;;1.79;76.54;90257.94;4806566;29;20038;-77
2021/11/28 09:52:33;;;;;;;4.93;2.33;;;;;;;1.87;77.04;90254.69;4806644;29;20057;-76
2021/11/28 09:55:03;;;;;;;5.03;1.80;;;;;;;1.96;72.05;90248.84;4805628;29;20485;-76
2021/11/28 09:57:29;;;;;;;7.60;3.47;;;;;;;2.25;70.88;90248.53;4806371;29;20043;-76
2021/11/28 09:59:56;;;;;;;8.23;4.22;;;;;;;2.46;70.78;90248.88;4805140;29;20034;-77
2021/11/28 10:02:28;;;;;;;9.80;3.88;;;;;;;2.63;69.05;90243.84;4789841;29;20080;-76
2021/11/28 10:04:56;;;;;;;9.38;4.40;;;;;;;2.76;66.58;90239.69;4804410;29;20030;-75
2021/11/28 10:07:22;;;;;;;8.30;3.72;;;;;;;2.84;64.23;90239.00;4806167;29;20129;-76
2021/11/28 10:09:48;;;;;;;4.43;2.28;;;;;;;2.94;64.97;90240.59;4804141;29;20463;-77
2021/11/28 10:12:23;;;;;;;3.83;1.88;;;;;;;3.05;61.94;90243.69;4804512;29;20030;-77
2021/11/28 10:15:20;;;;;;;2.10;1.20;;;;;;;3.12;62.25;90234.47;4805867;29;20043;-75
2021/11/28 10:17:46;;;;;;;2.67;1.40;;;;;;;3.25;60.51;90232.13;4805980;29;20041;-75
2021/11/28 10:20:19;;;;;;;4.15;1.48;;;;;;;3.46;58.79;90230.53;4806032;29;20027;-76
2021/11/28 10:22:46;;;;;;;1.02;0.90;;;;;;;3.73;58.02;90226.22;4804633;29;20046;-77
2021/11/28 10:25:22;;;;;;;1.10;1.00;;;;;;;3.94;56.84;90232.41;4804922;29;20038;-76
2021/11/28 10:27:55;;;;;;;3.53;1.90;;;;;;;4.20;56.77;90218.75;4805579;29;20066;-76
2021/11/28 10:30:26;;;;;;;2.63;1.25;;;;;;;4.15;56.67;90221.50;4811378;29;20070;-77
2021/11/28 10:32:52;;;;;;;2.55;1.48;;;;;;;4.20;58.51;90213.56;4806103;29;20058;-76
2021/11/28 10:35:19;;;;;;;2.38;1.30;;;;;;;4.27;56.16;90221.66;4805898;29;20509;-76
2021/11/28 10:37:50;;;;;;;2.47;0.85;;;;;;;4.21;56.12;90219.50;4805686;29;20504;-76
2021/11/28 10:40:23;;;;;;;0.80;0.70;;;;;;;4.13;56.34;90219.19;4805554;29;20039;-76
2021/11/28 10:42:51;;;;;;;0.73;0.70;;;;;;;3.80;55.85;90230.97;4804267;29;20287;-77
2021/11/28 10:45:20;;;;;;;0.68;0.60;;;;;;;3.93;57.72;90215.34;4789101;29;20058;-77
2021/11/28 10:47:57;;;;;;;0.60;0.60;;;;;;;4.06;57.20;90225.88;4805314;29;20556;-76
2021/11/28 10:50:27;;;;;;;1.75;0.93;;;;;;;3.72;58.13;90224.72;4805359;29;20523;-75
2021/11/28 10:53:08;;;;;;;1.77;1.10;;;;;;;3.46;60.58;90217.59;4806128;29;20043;-77
2021/11/28 10:55:52;;;;;;;4.72;2.10;;;;;;;3.08;61.84;90222.41;4805364;29;20047;-76
2021/11/28 10:58:21;;;;;;;2.00;1.15;;;;;;;3.24;60.98;90225.41;4789827;29;20127;-76
2021/11/28 11:00:46;;;;;;;1.23;0.93;;;;;;;3.36;60.93;90223.03;4788094;29;20035;-77
2021/11/28 11:03:52;;;;;;;3.25;1.77;;;;;;;3.49;63.37;90222.19;4795484;29;20030;-76
2021/11/28 11:06:19;;;;;;;1.75;0.90;;;;;;;3.53;60.04;90214.59;4796492;29;20147;-76
2021/11/28 11:08:46;;;;;;;3.47;1.77;;;;;;;3.71;61.93;90210.25;4805063;29;20037;-76
2021/11/28 11:11:14;;;;;;;2.53;1.52;;;;;;;3.70;58.49;90211.31;4805374;29;20051;-76
2021/11/28 11:14:00;;;;;;;1.25;0.80;;;;;;;3.79;55.62;90216.53;4806160;29;20424;-77
2021/11/28 11:16:32;;;;;;;4.18;1.17;;;;;;;3.73;59.30;90210.72;4804855;29;20414;-76
2021/11/28 11:19:38;;;;;;;2.60;1.33;;;;;;;3.62;58.49;90212.78;4805613;29;20046;-77
2021/11/28 11:22:27;;;;;;;2.00;1.20;;;;;;;3.77;57.84;90206.47;4805373;29;20039;-77
2021/11/28 11:25:07;;;;;;;2.53;1.25;;;;;;;4.02;55.41;90207.59;4805381;29;20043;-76
2021/11/28 11:27:37;;;;;;;2.88;1.52;;;;;;;4.28;57.08;90204.28;4805504;29;20099;-76
2021/11/28 11:30:09;;;;;;;4.32;1.40;;;;;;;4.52;58.21;90199.44;4805008;29;20129;-76
2021/11/28 11:32:47;;;;;;;7.53;2.92;;;;;;;4.67;55.65;90205.25;4804935;29;20038;-76
2021/11/28 11:35:41;;;;;;;9.55;3.20;;;;;;;5.43;55.28;90200.25;4805139;29;20520;-76
2021/11/28 11:38:10;;;;;;;21.42;7.43;;;;;;;5.66;51.74;90196.66;4803881;29;20154;-76
2021/11/28 11:40:36;;;;;;;5.88;2.08;;;;;;;5.70;52.46;90200.16;4804809;29;20050;-76
2021/11/28 11:43:03;;;;;;;10.20;3.65;;;;;;;6.05;55.65;90201.53;4803942;29;20115;-76
2021/11/28 11:45:35;;;;;;;4.03;1.65;;;;;;;5.96;57.28;90205.25;4803431;29;20026;-76
2021/11/28 11:48:00;;;;;;;4.15;2.03;;;;;;;5.47;57.74;90200.41;4803362;29;20039;-76
2021/11/28 11:50:30;;;;;;;3.10;1.52;;;;;;;5.15;59.08;90192.06;4788207;29;20043;-77
2021/11/28 11:52:56;;;;;;;3.45;1.48;;;;;;;4.94;61.56;90189.34;4803343;29;20059;-76
2021/11/28 11:55:30;;;;;;;4.70;2.13;;;;;;;4.98;61.65;90187.69;4804491;29;20039;-77
2021/11/28 11:58:14;;;;;;;1.85;1.20;;;;;;;5.15;59.80;90183.53;4788170;29;20447;-76
2021/11/28 12:01:02;;;;;;;10.52;3.05;;;;;;;5.15;61.59;90186.13;4804403;29;20034;-77
2021/11/28 12:03:41;;;;;;;2.47;1.40;;;;;;;4.40;59.38;90185.56;4804393;29;20126;-76
2021/11/28 12:06:07;;;;;;;2.33;1.33;;;;;;;4.56;61.08;90184.03;4804631;29;20501;-76
2021/11/28 12:08:33;;;;;;;1.80;1.10;;;;;;;4.66;55.81;90188.16;4804159;29;20087;-76
2021/11/28 12:11:02;;;;;;;4.43;1.20;;;;;;;4.89;58.18;90201.72;4804173;29;20043;-77
2021/11/28 12:13:28;;;;;;;2.33;1.30;;;;;;;4.17;67.14;90209.00;4804364;29;20039;-76
2021/11/28 12:15:57;;;;;;;3.65;1.35;;;;;;;3.92;68.02;90198.28;4802950;29;20456;-76
2021/11/28 12:18:35;;;;;;;1.92;1.25;;;;;;;3.72;67.15;90204.03;4804336;29;20574;-77
2021/11/28 12:21:02;;;;;;;2.88;1.45;;;;;;;3.62;65.87;90209.44;4803105;29;20066;-77
2021/11/28 12:23:42;;;;;;;16.10;7.18;;;;;;;3.64;66.27;90200.31;4803216;29;20058;-77
2021/11/28 12:26:50;;;;;;;12.35;5.00;;;;;;;3.66;67.39;90200.03;4803990;29;20097;-79
2021/11/28 12:29:15;;;;;;;6.88;3.05;;;;;;;3.80;65.97;90211.03;4796747;29;20055;-80
2021/11/28 12:31:50;;;;;;;3.08;1.70;;;;;;;4.50;60.30;90198.22;4805231;29;20042;-77
2021/11/28 12:34:18;;;;;;;2.15;1.30;;;;;;;5.47;57.12;90190.03;4804066;29;20125;-77
2021/11/28 12:36:47;;;;;;;4.30;1.60;;;;;;;6.18;52.36;90192.00;4804254;29;20046;-77
2021/11/28 12:39:23;;;;;;;6.95;2.60;;;;;;;6.57;52.33;90187.47;4805461;29;20446;-77
2021/11/28 12:41:51;;;;;;;5.38;3.03;;;;;;;7.56;49.58;90193.03;4804144;29;20035;-78
2021/11/28 12:44:28;;;;;;;14.45;6.63;;;;;;;8.12;49.42;90190.69;4804688;29;20031;-78
2021/11/28 12:46:58;;;;;;;4.32;2.17;;;;;;;8.69;49.19;90186.41;4804657;29;20138;-77
2021/11/28 12:49:30;;;;;;;2.22;1.25;;;;;;;8.96;46.59;90188.31;4805510;29;20593;-78
2021/11/28 12:52:22;;;;;;;10.25;4.47;;;;;;;8.34;48.15;90189.50;4809012;29;20057;-78
2021/11/28 12:55:07;;;;;;;5.47;2.13;;;;;;;8.89;49.04;90190.72;4809329;29;20448;-77
2021/11/28 12:58:01;;;;;;;43.60;15.95;;;;;;;8.79;47.33;90185.19;4807565;29;20095;-78
2021/11/28 13:00:30;;;;;;;85.75;29.45;;;;;;;8.48;48.65;90194.38;4809374;29;20461;-77
2021/11/28 13:02:59;;;;;;;9.00;3.20;;;;;;;8.42;49.66;90196.47;4808783;29;20035;-78
2021/11/28 13:05:31;;;;;;;5.38;2.20;;;;;;;8.80;51.84;90194.53;4807859;29;20042;-77
2021/11/28 13:08:03;;;;;;;2.38;1.27;;;;;;;8.89;51.49;90195.94;4808822;29;20046;-77
2021/11/28 13:10:44;;;;;;;1.90;1.15;;;;;;;8.71;47.78;90192.06;4807870;29;20039;-78
2021/11/28 13:13:15;;;;;;;3.75;1.85;;;;;;;8.94;49.09;90190.47;4807260;29;20551;-77
2021/11/28 13:15:51;;;;;;;2.08;1.27;;;;;;;9.40;48.33;90189.44;4808814;29;20047;-77
2021/11/28 13:18:19;;;;;;;1.38;0.95;;;;;;;8.80;45.02;90192.69;4807659;29;20042;-77
2021/11/28 13:21:05;;;;;;;2.63;1.30;;;;;;;9.35;46.48;90190.44;4809133;29;20403;-78
2021/11/28 13:23:53;;;;;;;1.27;0.90;;;;;;;9.64;43.02;90183.31;4808548;29;20072;-78
2021/11/28 13:26:52;;;;;;;1.40;0.90;;;;;;;10.02;42.09;90180.13;4809238;29;20100;-77
2021/11/28 13:29:18;;;;;;;1.35;0.90;;;;;;;10.53;39.41;90184.63;4809267;29;20055;-77
2021/11/28 13:31:43;;;;;;;1.08;0.90;;;;;;;10.97;37.78;90187.81;4807851;29;20423;-78
2021/11/28 13:34:10;;;;;;;0.82;0.80;;;;;;;11.22;36.83;90187.53;4808063;29;20047;-78
2021/11/28 13:36:39;;;;;;;0.80;0.70;;;;;;;11.25;37.46;90182.34;4793421;29;20035;-77
2021/11/28 13:39:08;;;;;;;1.95;0.88;;;;;;;10.43;37.21;90185.19;4809136;29;20054;-78
2021/11/28 13:41:35;;;;;;;1.25;0.70;;;;;;;9.99;38.22;90189.38;4807960;29;20414;-78
2021/11/28 13:44:04;;;;;;;2.40;1.10;;;;;;;9.74;42.39;90198.50;4793110;29;20030;-78
2021/11/28 13:46:32;;;;;;;0.95;0.93;;;;;;;9.44;41.13;90195.50;4792769;29;20031;-78
2021/11/28 13:49:00;;;;;;;1.83;1.15;;;;;;;9.13;43.84;90199.53;4807488;29;20042;-78
2021/11/28 13:51:52;;;;;;;1.20;0.77;;;;;;;8.48;47.43;90195.13;4808460;29;20039;-78
2021/11/28 13:54:31;;;;;;;0.82;0.80;;;;;;;7.55;51.02;90199.34;4807535;29;20042;-77
2021/11/28 13:57:07;;;;;;;1.02;0.80;;;;;;;7.03;54.00;90208.41;4807195;29;20058;-78
2021/11/28 13:59:52;;;;;;;3.53;1.00;;;;;;;6.30;56.84;90204.31;4807341;29;20045;-77
2021/11/28 14:02:44;;;;;;;3.47;1.50;;;;;;;5.87;56.90;90196.72;4807128;29;20051;-78
2021/11/28 14:05:19;;;;;;;1.83;1.10;;;;;;;5.75;52.71;90192.97;4807901;29;20038;-78
2021/11/28 14:07:51;;;;;;;1.88;1.10;;;;;;;5.63;55.96;90191.03;4808649;29;20049;-78
2021/11/28 14:10:21;;;;;;;1.83;1.27;;;;;;;5.74;59.51;90193.25;4807042;29;20043;-77
2021/11/28 14:12:52;;;;;;;1.58;0.80;;;;;;;5.80;50.10;90192.03;4806734;29;20410;-78
2021/11/28 14:15:25;;;;;;;1.60;0.95;;;;;;;5.94;56.58;90195.19;4806888;29;20599;-78
2021/11/28 14:18:00;;;;;;;1.30;1.00;;;;;;;6.05;56.86;90196.34;4808160;29;20110;-78
2021/11/28 14:20:28;;;;;;;3.00;1.50;;;;;;;6.21;57.28;90190.63;4807295;29;20545;-78
2021/11/28 14:22:54;;;;;;;1.80;1.10;;;;;;;6.52;57.98;90185.06;4808437;29;20034;-78
2021/11/28 14:25:38;;;;;;;2.75;1.58;;;;;;;6.23;58.49;90191.06;4807699;29;20148;-78
2021/11/28 14:28:17;;;;;;;2.17;1.42;;;;;;;5.74;58.84;90193.25;4807393;29;20042;-78
2021/11/28 14:31:08;;;;;;;2.80;1.63;;;;;;;5.50;61.70;90194.59;4806744;29;20475;-77
2021/11/28 14:33:38;;;;;;;1.85;1.20;;;;;;;5.78;59.48;90194.16;4804908;29;20138;-77
2021/11/28 14:36:14;;;;;;;80.63;28.95;;;;;;;6.15;58.19;90194.50;4805749;29;20493;-77
2021/11/28 14:38:44;;;;;;;41.65;14.52;;;;;;;6.30;54.73;90196.53;4806372;29;20038;-77
2021/11/28 14:41:52;;;;;;;6.53;2.67;;;;;;;6.47;53.12;90199.00;4806687;29;20049;-77
2021/11/28 14:44:21;;;;;;;5.30;2.13;;;;;;;6.39;54.48;90206.88;4807601;29;20058;-77
2021/11/28 14:46:48;;;;;;;4.53;2.45;;;;;;;5.80;54.21;90207.59;4807811;29;20301;-77
2021/11/28 14:49:20;;;;;;;2.40;1.40;;;;;;;5.40;50.52;90206.06;4807543;29;20434;-77
2021/11/28 14:52:07;;;;;;;3.58;1.63;;;;;;;5.06;48.83;90209.47;4807454;29;20054;-77
2021/11/28 14:54:35;;;;;;;2.30;1.25;;;;;;;4.71;50.49;90204.31;4807338;29;20051;-77
2021/11/28 14:57:20;;;;;;;1.50;0.82;;;;;;;4.46;49.89;90215.44;4806129;29;20034;-77
2021/11/28 14:59:48;;;;;;;3.20;1.55;;;;;;;4.26;49.96;90214.97;4807000;29;20042;-76
2021/11/28 15:02:35;;;;;;;1.15;0.75;;;;;;;3.96;49.99;90217.34;4806077;29;20058;-76
2021/11/28 15:05:04;;;;;;;2.45;1.25;;;;;;;3.85;50.83;90210.91;4805106;29;20038;-76
2021/11/28 15:07:35;;;;;;;1.58;0.90;;;;;;;3.62;49.78;90230.16;4806413;29;20061;-77
2021/11/28 15:10:04;;;;;;;7.43;2.75;;;;;;;3.49;51.01;90227.38;4806268;29;20172;-76
2021/11/28 15:12:36;;;;;;;5.45;2.25;;;;;;;3.38;54.10;90228.69;4803422;29;20054;-77
2021/11/28 15:15:08;;;;;;;5.78;2.75;;;;;;;3.25;52.69;90224.34;4806854;29;20076;-77
2021/11/28 15:17:36;;;;;;;3.20;1.67;;;;;;;3.20;53.60;90224.47;4807022;29;20417;-77
2021/11/28 15:20:11;;;;;;;3.25;1.73;;;;;;;2.98;51.28;90228.59;4805208;29;20034;-77
2021/11/28 15:22:40;;;;;;;3.45;1.73;;;;;;;2.87;52.32;90227.31;4807384;29;20046;-78
2021/11/28 15:25:08;;;;;;;2.20;1.27;;;;;;;2.81;54.29;90231.06;4809296;29;20477;-80
2021/11/28 15:27:34;;;;;;;5.70;2.55;;;;;;;2.62;52.53;90239.75;4814883;29;20058;-79
2021/11/28 15:30:00;;;;;;;2.90;1.33;;;;;;;2.57;52.66;90234.69;4810051;29;20027;-80
2021/11/28 15:32:25;;;;;;;1.75;1.30;;;;;;;2.39;56.49;90238.19;4815322;29;20070;-81
2021/11/28 15:34:51;;;;;;;1.65;1.20;;;;;;;2.26;55.17;90240.50;4814988;29;20034;-77
2021/11/28 15:37:17;;;;;;;1.70;1.23;;;;;;;2.13;55.36;90240.53;4816034;29;20044;-77
2021/11/28 15:39:42;;;;;;;1.63;1.05;;;;;;;2.04;50.72;90251.53;4809877;29;20475;-77
2021/11/28 15:42:08;;;;;;;2.50;1.33;;;;;;;1.92;54.64;90246.09;4794303;29;20046;-81
2021/11/28 15:44:34;;;;;;;2.10;1.10;;;;;;;1.78;54.19;90246.09;4793516;29;20101;-78
2021/11/28 15:47:00;;;;;;;5.05;2.70;;;;;;;1.69;54.27;90242.66;4812902;29;20056;-77
2021/11/28 15:49:26;;;;;;;3.58;1.95;;;;;;;1.59;53.91;90253.16;4811726;29;20421;-77
2021/11/28 15:51:52;;;;;;;1.80;1.10;;;;;;;1.50;54.41;90260.78;4793447;29;20103;-78
2021/11/28 15:54:19;;;;;;;4.30;1.95;;;;;;;1.39;54.73;90252.44;4808490;29;20074;-78
2021/11/28 15:57:03;;;;;;;3.97;1.95;;;;;;;1.32;55.68;90256.47;4791554;29;20405;-77
2021/11/28 15:59:29;;;;;;;1.25;0.98;;;;;;;1.13;55.54;90248.81;4806713;29;20047;-77
2021/11/28 16:01:55;;;;;;;2.03;1.17;;;;;;;1.02;56.14;90256.69;4806805;29;20063;-77
2021/11/28 16:04:20;;;;;;;0.70;0.70;;;;;;;0.93;54.63;90262.75;4806693;29;20137;-77
2021/11/28 16:06:46;;;;;;;0.85;0.80;;;;;;;0.83;57.56;90263.66;4807676;29;20039;-77
2021/11/28 16:09:12;;;;;;;1.20;1.00;;;;;;;0.73;54.54;90256.88;4807495;29;20049;-77
2021/11/28 16:11:39;;;;;;;1.35;0.93;;;;;;;0.71;54.71;90263.34;4808292;29;20034;-79
2021/11/28 16:14:06;;;;;;;2.55;1.30;;;;;;;0.65;57.09;90272.94;4805788;29;20057;-76
2021/11/28 16:16:32;;;;;;;3.38;1.98;;;;;;;0.46;64.13;90274.78;4805896;29;20127;-76
2021/11/28 16:18:58;;;;;;;5.88;2.55;;;;;;;0.26;65.55;90278.38;4807026;29;20062;-78
2021/11/28 16:21:24;;;;;;;3.22;1.88;;;;;;;0.11;65.06;90274.19;4806180;29;20042;-77
2021/11/28 16:23:50;;;;;;;2.80;1.60;;;;;;;-0.05;65.61;90276.94;4788324;30;20077;-77
2021/11/28 16:26:18;;;;;;;6.50;3.05;;;;;;;-0.25;67.03;90280.53;4803738;29;20091;-79
2021/11/28 16:28:44;;;;;;;7.30;3.60;;;;;;;-0.41;67.80;90284.28;4805532;29;20050;-77
2021/11/28 16:31:10;;;;;;;3.60;1.92;;;;;;;-0.52;68.44;90287.97;4804867;29;20501;-77
2021/11/28 16:33:36;;;;;;;2.20;1.23;;;;;;;-0.61;62.04;90284.47;4804397;29;20121;-76
2021/11/28 16:36:02;;;;;;;1.70;1.10;;;;;;;-0.66;60.66;90282.72;4804557;29;20038;-77
2021/11/28 16:38:28;;;;;;;2.38;1.25;;;;;;;-0.55;58.37;90288.53;4807248;29;20096;-77
2021/11/28 16:40:56;;;;;;;3.35;1.60;;;;;;;-0.42;56.24;90287.91;4808603;29;20043;-77
2021/11/28 16:43:21;;;;;;;3.35;1.70;;;;;;;-0.38;57.60;90285.53;4807085;29;20586;-77
2021/11/28 16:45:48;;;;;;;1.58;1.20;;;;;;;-0.37;55.28;90292.97;4807269;29;20113;-77
2021/11/28 16:48:17;;;;;;;1.60;1.00;;;;;;;-0.37;55.50;90285.25;4807091;29;20038;-80
2021/11/28 16:50:44;;;;;;;0.77;0.77;;;;;;;-0.38;55.04;90288.88;4804146;29;20078;-79
2021/11/28 16:53:10;;;;;;;1.25;0.93;;;;;;;-0.40;55.88;90295.34;4808290;29;20039;-79
2021/11/28 16:55:37;;;;;;;0.90;0.90;;;;;;;-0.43;55.99;90297.41;4808238;29;20043;-79
2021/11/28 16:58:04;;;;;;;1.30;1.00;;;;;;;-0.44;55.36;90301.00;4807980;29;20034;-79
2021/11/28 17:00:30;;;;;;;1.30;0.90;;;;;;;-0.41;54.44;90302.25;4789615;29;20509;-79
2021/11/28 17:02:56;;;;;;;3.90;2.22;;;;;;;-0.41;54.44;90299.69;4794500;29;20050;-77
2021/11/28 17:05:22;;;;;;;3.78;2.05;;;;;;;-0.42;54.21;90309.22;4814288;29;20604;-77
2021/11/28 17:07:48;;;;;;;1.25;1.10;;;;;;;-0.43;54.78;90312.84;4805968;29;20039;-77
2021/11/28 17:10:21;;;;;;;1.48;1.15;;;;;;;-0.43;55.26;90319.75;4804458;29;20114;-79
2021/11/28 17:12:49;;;;;;;10.07;3.92;;;;;;;-0.43;54.74;90327.47;4803383;29;20043;-83
2021/11/28 17:15:20;;;;;;;4.55;2.47;;;;;;;-0.46;54.94;90320.31;4801971;29;20424;-78
2021/11/28 17:17:47;;;;;;;4.43;1.88;;;;;;;-0.54;55.91;90328.59;4800777;29;20071;-77
2021/11/28 17:20:16;;;;;;;7.28;3.90;;;;;;;-0.56;55.36;90325.53;4795980;29;20043;-78
2021/11/28 17:22:41;;;;;;;4.95;2.90;;;;;;;-0.60;55.49;90332.28;4797905;29;20050;-78
2021/11/28 17:25:08;;;;;;;4.63;2.40;;;;;;;-0.67;55.87;90337.72;4804185;29;20075;-80
2021/11/28 17:27:35;;;;;;;4.00;2.40;;;;;;;-0.72;56.45;90335.19;4805617;29;20112;-80
2021/11/28 17:30:03;;;;;;;3.72;1.90;;;;;;;-0.77;57.42;90332.66;4803638;29;20059;-80
2021/11/28 17:32:28;;;;;;;5.57;3.35;;;;;;;-0.82;58.35;90332.72;4802985;29;20046;-80
2021/11/28 17:34:54;;;;;;;4.07;2.30;;;;;;;-0.78;55.72;90337.03;4806608;29;20035;-80
2021/11/28 17:37:20;;;;;;;8.00;2.97;;;;;;;-0.80;56.35;90333.97;4807560;29;20042;-80
2021/11/28 17:39:46;;;;;;;1.83;1.30;;;;;;;-0.82;55.75;90330.91;4807646;29;20035;-80
2021/11/28 17:42:12;;;;;;;2.72;1.70;;;;;;;-0.82;56.07;90335.28;4807163;29;20509;-83
2021/11/28 17:44:38;;;;;;;4.25;2.08;;;;;;;-0.82;54.39;90336.03;4808725;29;20035;-82
2021/11/28 17:47:04;;;;;;;4.30;2.10;;;;;;;-0.84;55.76;90341.44;4811667;29;20051;-80
2021/11/28 17:49:29;;;;;;;5.82;2.45;;;;;;;-0.88;57.18;90337.91;4808521;29;20043;-80
2021/11/28 17:51:55;;;;;;;3.22;2.00;;;;;;;-0.91;57.84;90337.66;4807349;29;20111;-79
2021/11/28 17:54:20;;;;;;;3.55;1.80;;;;;;;-0.97;57.92;90333.59;4806732;29;20031;-78
2021/11/28 17:56:47;;;;;;;4.93;3.08;;;;;;;-1.00;57.32;90323.88;4808650;29;20078;-78
2021/11/28 17:59:13;;;;;;;4.72;2.83;;;;;;;-1.02;57.93;90333.63;4807463;29;20053;-78
2021/11/28 18:01:41;;;;;;;8.25;5.57;;;;;;;-1.07;59.75;90337.00;4806556;29;20058;-79
2021/11/28 18:04:07;;;;;;;7.38;4.15;;;;;;;-1.12;60.11;90340.38;4802475;29;20042;-78
2021/11/28 18:06:33;;;;;;;5.32;3.17;;;;;;;-1.17;60.16;90335.28;4808992;29;20043;-79